sensor_id;sensor_type;location;lat;lon;timestamp;temperature;humidity
14008;DHT22;61651;45.508;12.232;2024-01-11T00:00:19;5.10;90.00
14008;DHT22;61651;45.508;12.232;2024-01-11T00:03:22;5.30;89.60
14008;DHT22;61651;45.508;12.232;2024-01-11T00:06:24;5.30;89.40
14008;DHT22;61651;45.508;12.232;2024-01-11T00:09:26;5.30;89.70
14008;DHT22;61651;45.508;12.232;2024-01-11T00:12:28;5.40;90.00
14008;DHT22;61651;45.508;12.232;2024-01-11T00:15:31;5.40;90.10
14008;DHT22;61651;45.508;12.232;2024-01-11T00:18:33;5.40;90.20
14008;DHT22;61651;45.508;12.232;2024-01-11T00:21:35;5.40;90.40
14008;DHT22;61651;45.508;12.232;2024-01-11T00:24:37;5.40;90.10
14008;DHT22;61651;45.508;12.232;2024-01-11T00:27:39;5.40;89.80
14008;DHT22;61651;45.508;12.232;2024-01-11T00:30:43;5.30;89.40
14008;DHT22;61651;45.508;12.232;2024-01-11T00:33:45;5.30;90.00
14008;DHT22;61651;45.508;12.232;2024-01-11T00:36:47;5.20;90.30
14008;DHT22;61651;45.508;12.232;2024-01-11T00:39:49;5.20;90.70
14008;DHT22;61651;45.508;12.232;2024-01-11T00:42:51;5.20;90.30
14008;DHT22;61651;45.508;12.232;2024-01-11T00:45:54;5.20;90.10
14008;DHT22;61651;45.508;12.232;2024-01-11T00:48:56;5.10;90.10
14008;DHT22;61651;45.508;12.232;2024-01-11T00:51:58;5.10;90.10
14008;DHT22;61651;45.508;12.232;2024-01-11T00:55:00;5.00;90.00
14008;DHT22;61651;45.508;12.232;2024-01-11T00:58:02;5.00;90.20
14008;DHT22;61651;45.508;12.232;2024-01-11T01:01:09;5.10;90.20
14008;DHT22;61651;45.508;12.232;2024-01-11T01:04:11;5.10;90.10
14008;DHT22;61651;45.508;12.232;2024-01-11T01:07:13;5.10;90.20
14008;DHT22;61651;45.508;12.232;2024-01-11T01:10:15;5.20;90.20
14008;DHT22;61651;45.508;12.232;2024-01-11T01:13:17;5.20;90.00
14008;DHT22;61651;45.508;12.232;2024-01-11T01:16:20;5.20;90.10
14008;DHT22;61651;45.508;12.232;2024-01-11T01:19:22;5.20;90.00
14008;DHT22;61651;45.508;12.232;2024-01-11T01:22:24;5.20;90.00
14008;DHT22;61651;45.508;12.232;2024-01-11T01:25:26;5.20;90.30
14008;DHT22;61651;45.508;12.232;2024-01-11T01:28:28;5.20;90.00
14008;DHT22;61651;45.508;12.232;2024-01-11T01:31:31;5.20;90.00
14008;DHT22;61651;45.508;12.232;2024-01-11T01:34:38;5.30;90.00
14008;DHT22;61651;45.508;12.232;2024-01-11T01:37:40;5.30;90.00
14008;DHT22;61651;45.508;12.232;2024-01-11T01:40:42;5.30;89.90
14008;DHT22;61651;45.508;12.232;2024-01-11T01:43:43;5.30;90.00
14008;DHT22;61651;45.508;12.232;2024-01-11T01:46:47;5.20;89.40
14008;DHT22;61651;45.508;12.232;2024-01-11T01:49:50;5.20;89.50
14008;DHT22;61651;45.508;12.232;2024-01-11T01:52:52;5.20;89.70
14008;DHT22;61651;45.508;12.232;2024-01-11T01:55:54;5.20;89.50
14008;DHT22;61651;45.508;12.232;2024-01-11T01:58:56;5.20;89.70
14008;DHT22;61651;45.508;12.232;2024-01-11T02:02:01;5.10;90.10
14008;DHT22;61651;45.508;12.232;2024-01-11T02:05:04;5.10;89.80
14008;DHT22;61651;45.508;12.232;2024-01-11T02:08:07;5.10;90.00
14008;DHT22;61651;45.508;12.232;2024-01-11T02:11:10;5.10;90.00
14008;DHT22;61651;45.508;12.232;2024-01-11T02:14:13;5.00;90.10
14008;DHT22;61651;45.508;12.232;2024-01-11T02:17:16;5.00;90.20
14008;DHT22;61651;45.508;12.232;2024-01-11T02:20:18;5.00;90.20
14008;DHT22;61651;45.508;12.232;2024-01-11T02:23:22;4.90;90.20
14008;DHT22;61651;45.508;12.232;2024-01-11T02:26:27;4.90;90.30
14008;DHT22;61651;45.508;12.232;2024-01-11T02:29:30;4.70;90.60
14008;DHT22;61651;45.508;12.232;2024-01-11T02:32:32;4.50;91.00
14008;DHT22;61651;45.508;12.232;2024-01-11T02:35:34;4.10;91.70
14008;DHT22;61651;45.508;12.232;2024-01-11T02:38:38;4.00;91.80
14008;DHT22;61651;45.508;12.232;2024-01-11T02:41:44;4.00;91.90
14008;DHT22;61651;45.508;12.232;2024-01-11T02:44:47;4.10;91.80
14008;DHT22;61651;45.508;12.232;2024-01-11T02:47:49;4.30;91.50
14008;DHT22;61651;45.508;12.232;2024-01-11T02:50:51;4.30;91.60
14008;DHT22;61651;45.508;12.232;2024-01-11T02:53:53;4.40;91.30
14008;DHT22;61651;45.508;12.232;2024-01-11T02:56:56;4.50;91.50
14008;DHT22;61651;45.508;12.232;2024-01-11T02:59:59;4.60;91.40
14008;DHT22;61651;45.508;12.232;2024-01-11T03:03:01;4.60;91.40
14008;DHT22;61651;45.508;12.232;2024-01-11T03:06:04;4.60;91.40
14008;DHT22;61651;45.508;12.232;2024-01-11T03:09:06;4.50;91.40
14008;DHT22;61651;45.508;12.232;2024-01-11T03:12:09;4.60;91.40
14008;DHT22;61651;45.508;12.232;2024-01-11T03:15:11;4.60;91.40
14008;DHT22;61651;45.508;12.232;2024-01-11T03:18:13;4.50;91.40
14008;DHT22;61651;45.508;12.232;2024-01-11T03:21:15;4.50;91.50
14008;DHT22;61651;45.508;12.232;2024-01-11T03:24:18;4.50;91.60
14008;DHT22;61651;45.508;12.232;2024-01-11T03:27:22;4.50;91.70
14008;DHT22;61651;45.508;12.232;2024-01-11T03:30:24;4.40;91.70
14008;DHT22;61651;45.508;12.232;2024-01-11T03:33:26;4.40;91.80
14008;DHT22;61651;45.508;12.232;2024-01-11T03:36:28;4.40;91.80
14008;DHT22;61651;45.508;12.232;2024-01-11T03:39:30;4.40;92.30
14008;DHT22;61651;45.508;12.232;2024-01-11T03:42:33;4.40;91.80
14008;DHT22;61651;45.508;12.232;2024-01-11T03:45:35;4.40;91.80
14008;DHT22;61651;45.508;12.232;2024-01-11T03:48:37;4.30;91.90
14008;DHT22;61651;45.508;12.232;2024-01-11T03:51:39;4.40;91.90
14008;DHT22;61651;45.508;12.232;2024-01-11T03:54:42;4.40;91.90
14008;DHT22;61651;45.508;12.232;2024-01-11T03:57:45;4.40;92.10
14008;DHT22;61651;45.508;12.232;2024-01-11T04:00:47;4.40;92.20
14008;DHT22;61651;45.508;12.232;2024-01-11T04:03:49;4.30;92.20
14008;DHT22;61651;45.508;12.232;2024-01-11T04:06:51;4.10;92.50
14008;DHT22;61651;45.508;12.232;2024-01-11T04:09:53;4.10;92.60
14008;DHT22;61651;45.508;12.232;2024-01-11T04:12:57;4.10;92.50
14008;DHT22;61651;45.508;12.232;2024-01-11T04:15:59;4.20;92.40
14008;DHT22;61651;45.508;12.232;2024-01-11T04:19:05;4.20;92.40
14008;DHT22;61651;45.508;12.232;2024-01-11T04:22:07;4.30;92.60
14008;DHT22;61651;45.508;12.232;2024-01-11T04:25:09;4.30;92.60
14008;DHT22;61651;45.508;12.232;2024-01-11T04:28:13;4.20;92.90
14008;DHT22;61651;45.508;12.232;2024-01-11T04:31:15;4.20;92.70
14008;DHT22;61651;45.508;12.232;2024-01-11T04:34:17;4.30;92.70
14008;DHT22;61651;45.508;12.232;2024-01-11T04:37:20;4.30;92.70
14008;DHT22;61651;45.508;12.232;2024-01-11T04:40:22;4.30;92.60
14008;DHT22;61651;45.508;12.232;2024-01-11T04:43:25;4.30;92.60
14008;DHT22;61651;45.508;12.232;2024-01-11T04:46:27;4.30;92.60
14008;DHT22;61651;45.508;12.232;2024-01-11T04:49:29;4.30;92.70
14008;DHT22;61651;45.508;12.232;2024-01-11T04:52:31;4.30;92.70
14008;DHT22;61651;45.508;12.232;2024-01-11T04:55:33;4.30;92.80
14008;DHT22;61651;45.508;12.232;2024-01-11T04:58:38;4.20;92.70
14008;DHT22;61651;45.508;12.232;2024-01-11T05:01:41;4.20;92.80
14008;DHT22;61651;45.508;12.232;2024-01-11T05:04:43;4.20;92.70
14008;DHT22;61651;45.508;12.232;2024-01-11T05:07:45;4.20;92.80
14008;DHT22;61651;45.508;12.232;2024-01-11T05:10:47;4.30;92.70
14008;DHT22;61651;45.508;12.232;2024-01-11T05:13:51;4.10;92.80
14008;DHT22;61651;45.508;12.232;2024-01-11T05:16:53;3.90;93.10
14008;DHT22;61651;45.508;12.232;2024-01-11T05:19:55;3.80;93.30
14008;DHT22;61651;45.508;12.232;2024-01-11T05:22:57;3.90;93.30
14008;DHT22;61651;45.508;12.232;2024-01-11T05:25:59;4.00;93.20
14008;DHT22;61651;45.508;12.232;2024-01-11T05:29:02;4.00;93.10
14008;DHT22;61651;45.508;12.232;2024-01-11T05:32:06;4.10;93.10
14008;DHT22;61651;45.508;12.232;2024-01-11T05:35:08;4.20;93.10
14008;DHT22;61651;45.508;12.232;2024-01-11T05:38:11;4.10;93.20
14008;DHT22;61651;45.508;12.232;2024-01-11T05:41:13;4.10;93.30
14008;DHT22;61651;45.508;12.232;2024-01-11T05:44:17;4.10;93.30
14008;DHT22;61651;45.508;12.232;2024-01-11T05:47:19;4.10;93.30
14008;DHT22;61651;45.508;12.232;2024-01-11T05:50:21;4.10;93.40
14008;DHT22;61651;45.508;12.232;2024-01-11T05:53:23;4.10;93.40
14008;DHT22;61651;45.508;12.232;2024-01-11T05:56:27;4.00;93.60
14008;DHT22;61651;45.508;12.232;2024-01-11T05:59:31;4.00;93.60
14008;DHT22;61651;45.508;12.232;2024-01-11T06:02:33;4.00;93.60
14008;DHT22;61651;45.508;12.232;2024-01-11T06:05:35;4.00;93.60
14008;DHT22;61651;45.508;12.232;2024-01-11T06:08:37;4.00;93.80
14008;DHT22;61651;45.508;12.232;2024-01-11T06:11:39;4.00;93.70
14008;DHT22;61651;45.508;12.232;2024-01-11T06:14:42;4.10;94.00
14008;DHT22;61651;45.508;12.232;2024-01-11T06:17:44;3.90;94.00
14008;DHT22;61651;45.508;12.232;2024-01-11T06:20:46;3.90;94.20
14008;DHT22;61651;45.508;12.232;2024-01-11T06:23:48;3.90;94.20
14008;DHT22;61651;45.508;12.232;2024-01-11T06:26:50;3.60;94.70
14008;DHT22;61651;45.508;12.232;2024-01-11T06:29:54;3.70;94.70
14008;DHT22;61651;45.508;12.232;2024-01-11T06:32:56;3.80;94.60
14008;DHT22;61651;45.508;12.232;2024-01-11T06:35:58;3.90;94.50
14008;DHT22;61651;45.508;12.232;2024-01-11T06:39:00;4.00;94.40
14008;DHT22;61651;45.508;12.232;2024-01-11T06:42:03;4.10;94.40
14008;DHT22;61651;45.508;12.232;2024-01-11T06:45:08;4.10;94.40
14008;DHT22;61651;45.508;12.232;2024-01-11T06:48:10;4.00;94.50
14008;DHT22;61651;45.508;12.232;2024-01-11T06:51:14;3.90;94.80
14008;DHT22;61651;45.508;12.232;2024-01-11T06:54:17;3.70;95.00
14008;DHT22;61651;45.508;12.232;2024-01-11T06:57:19;3.60;95.10
14008;DHT22;61651;45.508;12.232;2024-01-11T07:00:22;3.70;95.00
14008;DHT22;61651;45.508;12.232;2024-01-11T07:03:24;3.90;94.80
14008;DHT22;61651;45.508;12.232;2024-01-11T07:06:26;3.90;94.60
14008;DHT22;61651;45.508;12.232;2024-01-11T07:09:28;4.10;94.60
14008;DHT22;61651;45.508;12.232;2024-01-11T07:12:30;4.00;94.70
14008;DHT22;61651;45.508;12.232;2024-01-11T07:15:33;3.90;94.90
14008;DHT22;61651;45.508;12.232;2024-01-11T07:18:35;3.90;94.90
14008;DHT22;61651;45.508;12.232;2024-01-11T07:21:38;3.90;94.90
14008;DHT22;61651;45.508;12.232;2024-01-11T07:24:40;3.70;95.10
14008;DHT22;61651;45.508;12.232;2024-01-11T07:27:42;3.70;95.20
14008;DHT22;61651;45.508;12.232;2024-01-11T07:30:45;3.70;95.30
14008;DHT22;61651;45.508;12.232;2024-01-11T07:33:47;3.90;95.30
14008;DHT22;61651;45.508;12.232;2024-01-11T07:36:52;4.10;95.10
14008;DHT22;61651;45.508;12.232;2024-01-11T07:39:54;4.20;94.90
14008;DHT22;61651;45.508;12.232;2024-01-11T07:42:56;4.30;94.90
14008;DHT22;61651;45.508;12.232;2024-01-11T07:45:59;4.30;94.90
14008;DHT22;61651;45.508;12.232;2024-01-11T07:49:01;4.40;94.80
14008;DHT22;61651;45.508;12.232;2024-01-11T07:52:04;4.60;94.80
14008;DHT22;61651;45.508;12.232;2024-01-11T07:55:07;4.70;94.70
14008;DHT22;61651;45.508;12.232;2024-01-11T07:58:09;4.80;94.70
14008;DHT22;61651;45.508;12.232;2024-01-11T08:01:15;4.90;94.50
14008;DHT22;61651;45.508;12.232;2024-01-11T08:04:17;4.90;94.30
14008;DHT22;61651;45.508;12.232;2024-01-11T08:07:19;4.90;94.50
14008;DHT22;61651;45.508;12.232;2024-01-11T08:10:22;4.80;94.60
14008;DHT22;61651;45.508;12.232;2024-01-11T08:13:24;4.80;94.50
14008;DHT22;61651;45.508;12.232;2024-01-11T08:16:27;4.80;94.40
14008;DHT22;61651;45.508;12.232;2024-01-11T08:19:29;4.90;94.80
14008;DHT22;61651;45.508;12.232;2024-01-11T08:22:31;4.90;95.00
14008;DHT22;61651;45.508;12.232;2024-01-11T08:25:35;5.10;94.70
14008;DHT22;61651;45.508;12.232;2024-01-11T08:28:37;5.20;94.50
14008;DHT22;61651;45.508;12.232;2024-01-11T08:31:41;5.20;94.50
14008;DHT22;61651;45.508;12.232;2024-01-11T08:34:44;5.30;94.60
14008;DHT22;61651;45.508;12.232;2024-01-11T08:37:46;5.50;94.30
14008;DHT22;61651;45.508;12.232;2024-01-11T08:40:48;5.60;94.00
14008;DHT22;61651;45.508;12.232;2024-01-11T08:43:50;5.50;94.10
14008;DHT22;61651;45.508;12.232;2024-01-11T08:46:56;5.70;94.10
14008;DHT22;61651;45.508;12.232;2024-01-11T08:49:59;5.80;93.70
14008;DHT22;61651;45.508;12.232;2024-01-11T08:53:01;5.90;93.60
14008;DHT22;61651;45.508;12.232;2024-01-11T08:56:04;6.00;93.50
14008;DHT22;61651;45.508;12.232;2024-01-11T08:59:06;6.00;93.10
14008;DHT22;61651;45.508;12.232;2024-01-11T09:02:10;6.10;93.30
14008;DHT22;61651;45.508;12.232;2024-01-11T09:05:14;6.10;93.20
14008;DHT22;61651;45.508;12.232;2024-01-11T09:08:16;6.10;93.20
14008;DHT22;61651;45.508;12.232;2024-01-11T09:11:18;6.20;92.60
14008;DHT22;61651;45.508;12.232;2024-01-11T09:14:20;6.20;93.00
14008;DHT22;61651;45.508;12.232;2024-01-11T09:17:23;6.30;93.00
14008;DHT22;61651;45.508;12.232;2024-01-11T09:20:25;6.40;93.10
14008;DHT22;61651;45.508;12.232;2024-01-11T09:23:27;6.50;92.90
14008;DHT22;61651;45.508;12.232;2024-01-11T09:26:29;6.60;92.90
14008;DHT22;61651;45.508;12.232;2024-01-11T09:29:31;6.80;92.80
14008;DHT22;61651;45.508;12.232;2024-01-11T09:32:34;6.80;92.80
14008;DHT22;61651;45.508;12.232;2024-01-11T09:35:36;6.70;92.70
14008;DHT22;61651;45.508;12.232;2024-01-11T09:38:38;6.80;92.50
14008;DHT22;61651;45.508;12.232;2024-01-11T09:41:42;6.80;91.70
14008;DHT22;61651;45.508;12.232;2024-01-11T09:44:49;6.70;92.10
14008;DHT22;61651;45.508;12.232;2024-01-11T09:47:53;6.80;92.20
14008;DHT22;61651;45.508;12.232;2024-01-11T09:50:56;6.80;92.00
14008;DHT22;61651;45.508;12.232;2024-01-11T09:53:59;6.90;91.90
14008;DHT22;61651;45.508;12.232;2024-01-11T09:57:02;6.90;91.90
14008;DHT22;61651;45.508;12.232;2024-01-11T10:00:06;7.10;92.10
14008;DHT22;61651;45.508;12.232;2024-01-11T10:03:12;7.30;92.30
14008;DHT22;61651;45.508;12.232;2024-01-11T10:06:14;7.50;92.30
14008;DHT22;61651;45.508;12.232;2024-01-11T10:09:17;7.30;91.90
14008;DHT22;61651;45.508;12.232;2024-01-11T10:12:19;7.50;92.20
14008;DHT22;61651;45.508;12.232;2024-01-11T10:15:25;7.50;92.10
14008;DHT22;61651;45.508;12.232;2024-01-11T10:18:29;7.60;92.10
14008;DHT22;61651;45.508;12.232;2024-01-11T10:21:31;7.70;91.50
14008;DHT22;61651;45.508;12.232;2024-01-11T10:24:33;7.60;90.80
14008;DHT22;61651;45.508;12.232;2024-01-11T10:27:37;7.30;91.60
14008;DHT22;61651;45.508;12.232;2024-01-11T10:30:39;7.50;92.00
14008;DHT22;61651;45.508;12.232;2024-01-11T10:33:43;7.70;91.80
14008;DHT22;61651;45.508;12.232;2024-01-11T10:36:46;7.90;91.40
14008;DHT22;61651;45.508;12.232;2024-01-11T10:39:49;8.10;90.80
14008;DHT22;61651;45.508;12.232;2024-01-11T10:42:52;8.00;90.80
14008;DHT22;61651;45.508;12.232;2024-01-11T10:45:56;8.00;90.80
14008;DHT22;61651;45.508;12.232;2024-01-11T10:49:06;7.80;91.20
14008;DHT22;61651;45.508;12.232;2024-01-11T10:52:12;7.80;91.60
14008;DHT22;61651;45.508;12.232;2024-01-11T10:55:16;7.80;92.30
14008;DHT22;61651;45.508;12.232;2024-01-11T10:58:19;7.60;91.80
14008;DHT22;61651;45.508;12.232;2024-01-11T11:01:23;7.60;91.60
14008;DHT22;61651;45.508;12.232;2024-01-11T11:04:28;7.40;91.10
14008;DHT22;61651;45.508;12.232;2024-01-11T11:07:31;7.40;91.10
14008;DHT22;61651;45.508;12.232;2024-01-11T11:10:34;7.60;91.90
14008;DHT22;61651;45.508;12.232;2024-01-11T11:13:36;7.70;91.50
14008;DHT22;61651;45.508;12.232;2024-01-11T11:16:39;7.80;90.50
14008;DHT22;61651;45.508;12.232;2024-01-11T11:19:42;7.80;91.50
14008;DHT22;61651;45.508;12.232;2024-01-11T11:22:48;7.80;90.90
14008;DHT22;61651;45.508;12.232;2024-01-11T11:26:06;7.90;91.00
14008;DHT22;61651;45.508;12.232;2024-01-11T11:29:09;8.40;90.50
14008;DHT22;61651;45.508;12.232;2024-01-11T11:32:11;8.30;90.50
14008;DHT22;61651;45.508;12.232;2024-01-11T11:35:15;8.50;91.10
14008;DHT22;61651;45.508;12.232;2024-01-11T11:38:18;8.70;91.00
14008;DHT22;61651;45.508;12.232;2024-01-11T11:41:21;9.00;90.80
14008;DHT22;61651;45.508;12.232;2024-01-11T11:44:24;9.20;90.40
14008;DHT22;61651;45.508;12.232;2024-01-11T11:47:33;9.40;91.00
14008;DHT22;61651;45.508;12.232;2024-01-11T11:50:36;9.50;90.80
14008;DHT22;61651;45.508;12.232;2024-01-11T11:53:40;9.50;89.80
14008;DHT22;61651;45.508;12.232;2024-01-11T11:56:42;9.50;90.20
14008;DHT22;61651;45.508;12.232;2024-01-11T11:59:44;9.60;90.80
14008;DHT22;61651;45.508;12.232;2024-01-11T12:02:47;9.70;90.50
14008;DHT22;61651;45.508;12.232;2024-01-11T12:05:50;9.80;90.80
14008;DHT22;61651;45.508;12.232;2024-01-11T12:08:53;10.00;90.50
14008;DHT22;61651;45.508;12.232;2024-01-11T12:11:56;10.10;90.20
14008;DHT22;61651;45.508;12.232;2024-01-11T12:14:58;10.00;90.50
14008;DHT22;61651;45.508;12.232;2024-01-11T12:18:00;10.00;90.80
14008;DHT22;61651;45.508;12.232;2024-01-11T12:21:04;10.30;90.80
14008;DHT22;61651;45.508;12.232;2024-01-11T12:24:06;10.20;90.10
14008;DHT22;61651;45.508;12.232;2024-01-11T12:27:09;10.50;90.10
14008;DHT22;61651;45.508;12.232;2024-01-11T12:30:12;10.60;90.10
14008;DHT22;61651;45.508;12.232;2024-01-11T12:33:18;10.70;88.90
14008;DHT22;61651;45.508;12.232;2024-01-11T12:36:21;10.70;90.00
14008;DHT22;61651;45.508;12.232;2024-01-11T12:39:25;11.00;92.50
14008;DHT22;61651;45.508;12.232;2024-01-11T12:42:27;11.00;89.40
14008;DHT22;61651;45.508;12.232;2024-01-11T12:45:29;11.20;90.00
14008;DHT22;61651;45.508;12.232;2024-01-11T12:48:32;11.30;90.60
14008;DHT22;61651;45.508;12.232;2024-01-11T12:51:37;11.40;89.00
14008;DHT22;61651;45.508;12.232;2024-01-11T12:54:40;11.30;90.20
14008;DHT22;61651;45.508;12.232;2024-01-11T12:57:42;11.40;90.00
14008;DHT22;61651;45.508;12.232;2024-01-11T13:00:44;11.50;88.80
14008;DHT22;61651;45.508;12.232;2024-01-11T13:03:47;11.70;88.90
14008;DHT22;61651;45.508;12.232;2024-01-11T13:06:50;11.50;80.40
14008;DHT22;61651;45.508;12.232;2024-01-11T13:09:52;11.20;82.50
14008;DHT22;61651;45.508;12.232;2024-01-11T13:12:54;11.60;84.70
14008;DHT22;61651;45.508;12.232;2024-01-11T13:15:56;11.80;84.20
14008;DHT22;61651;45.508;12.232;2024-01-11T13:18:58;12.10;83.10
14008;DHT22;61651;45.508;12.232;2024-01-11T13:22:02;12.30;80.40
14008;DHT22;61651;45.508;12.232;2024-01-11T13:25:05;12.50;81.90
14008;DHT22;61651;45.508;12.232;2024-01-11T13:28:07;12.70;82.00
14008;DHT22;61651;45.508;12.232;2024-01-11T13:31:09;12.80;82.20
14008;DHT22;61651;45.508;12.232;2024-01-11T13:34:11;13.00;81.20
14008;DHT22;61651;45.508;12.232;2024-01-11T13:37:14;13.10;80.80
14008;DHT22;61651;45.508;12.232;2024-01-11T13:40:16;13.20;79.70
14008;DHT22;61651;45.508;12.232;2024-01-11T13:43:18;13.20;78.90
14008;DHT22;61651;45.508;12.232;2024-01-11T13:46:20;13.40;79.60
14008;DHT22;61651;45.508;12.232;2024-01-11T13:49:22;13.50;78.30
14008;DHT22;61651;45.508;12.232;2024-01-11T13:52:27;13.70;79.50
14008;DHT22;61651;45.508;12.232;2024-01-11T13:55:29;13.90;78.30
14008;DHT22;61651;45.508;12.232;2024-01-11T13:58:38;14.20;78.10
14008;DHT22;61651;45.508;12.232;2024-01-11T14:01:40;14.50;77.70
14008;DHT22;61651;45.508;12.232;2024-01-11T14:04:42;14.60;74.40
14008;DHT22;61651;45.508;12.232;2024-01-11T14:07:46;14.70;74.10
14008;DHT22;61651;45.508;12.232;2024-01-11T14:10:48;14.80;73.40
14008;DHT22;61651;45.508;12.232;2024-01-11T14:13:50;14.60;72.40
14008;DHT22;61651;45.508;12.232;2024-01-11T14:16:52;14.70;72.30
14008;DHT22;61651;45.508;12.232;2024-01-11T14:19:54;14.80;72.60
14008;DHT22;61651;45.508;12.232;2024-01-11T14:22:58;14.90;73.10
14008;DHT22;61651;45.508;12.232;2024-01-11T14:26:00;15.00;71.70
14008;DHT22;61651;45.508;12.232;2024-01-11T14:29:02;15.00;70.40
14008;DHT22;61651;45.508;12.232;2024-01-11T14:32:04;15.00;69.80
14008;DHT22;61651;45.508;12.232;2024-01-11T14:35:07;15.00;70.10
14008;DHT22;61651;45.508;12.232;2024-01-11T14:38:11;15.00;72.00
14008;DHT22;61651;45.508;12.232;2024-01-11T14:41:13;15.10;69.90
14008;DHT22;61651;45.508;12.232;2024-01-11T14:44:15;15.20;69.50
14008;DHT22;61651;45.508;12.232;2024-01-11T14:47:17;15.20;69.90
14008;DHT22;61651;45.508;12.232;2024-01-11T14:50:19;15.20;69.00
14008;DHT22;61651;45.508;12.232;2024-01-11T14:53:23;15.10;68.10
14008;DHT22;61651;45.508;12.232;2024-01-11T14:56:25;15.10;69.00
14008;DHT22;61651;45.508;12.232;2024-01-11T14:59:27;14.90;68.50
14008;DHT22;61651;45.508;12.232;2024-01-11T15:02:29;14.90;69.60
14008;DHT22;61651;45.508;12.232;2024-01-11T15:05:31;14.80;68.40
14008;DHT22;61651;45.508;12.232;2024-01-11T15:08:35;14.70;69.80
14008;DHT22;61651;45.508;12.232;2024-01-11T15:11:37;14.80;69.70
14008;DHT22;61651;45.508;12.232;2024-01-11T15:14:40;14.60;70.10
14008;DHT22;61651;45.508;12.232;2024-01-11T15:17:42;14.50;70.80
14008;DHT22;61651;45.508;12.232;2024-01-11T15:20:44;14.50;71.20
14008;DHT22;61651;45.508;12.232;2024-01-11T15:23:47;14.40;71.50
14008;DHT22;61651;45.508;12.232;2024-01-11T15:26:49;14.30;70.80
14008;DHT22;61651;45.508;12.232;2024-01-11T15:29:51;14.20;71.90
14008;DHT22;61651;45.508;12.232;2024-01-11T15:32:53;13.90;72.00
14008;DHT22;61651;45.508;12.232;2024-01-11T15:35:55;13.50;72.50
14008;DHT22;61651;45.508;12.232;2024-01-11T15:38:59;13.30;73.80
14008;DHT22;61651;45.508;12.232;2024-01-11T15:42:02;13.00;74.30
14008;DHT22;61651;45.508;12.232;2024-01-11T15:45:06;12.80;74.50
14008;DHT22;61651;45.508;12.232;2024-01-11T15:48:08;12.50;74.60
14008;DHT22;61651;45.508;12.232;2024-01-11T15:51:10;12.30;74.90
14008;DHT22;61651;45.508;12.232;2024-01-11T15:54:14;12.20;76.10
14008;DHT22;61651;45.508;12.232;2024-01-11T15:57:16;12.00;76.00
14008;DHT22;61651;45.508;12.232;2024-01-11T16:00:18;11.90;76.10
14008;DHT22;61651;45.508;12.232;2024-01-11T16:03:20;11.70;77.00
14008;DHT22;61651;45.508;12.232;2024-01-11T16:06:22;11.60;77.10
14008;DHT22;61651;45.508;12.232;2024-01-11T16:09:25;11.40;77.70
14008;DHT22;61651;45.508;12.232;2024-01-11T16:12:27;11.30;77.90
14008;DHT22;61651;45.508;12.232;2024-01-11T16:15:30;11.10;78.20
14008;DHT22;61651;45.508;12.232;2024-01-11T16:18:34;11.00;78.20
14008;DHT22;61651;45.508;12.232;2024-01-11T16:21:38;10.90;78.70
14008;DHT22;61651;45.508;12.232;2024-01-11T16:24:41;10.80;78.90
14008;DHT22;61651;45.508;12.232;2024-01-11T16:27:43;10.60;78.70
14008;DHT22;61651;45.508;12.232;2024-01-11T16:30:45;10.50;79.00
14008;DHT22;61651;45.508;12.232;2024-01-11T16:33:47;10.30;79.70
14008;DHT22;61651;45.508;12.232;2024-01-11T16:36:49;9.80;81.40
14008;DHT22;61651;45.508;12.232;2024-01-11T16:39:52;9.70;81.90
14008;DHT22;61651;45.508;12.232;2024-01-11T16:42:54;9.70;82.00
14008;DHT22;61651;45.508;12.232;2024-01-11T16:45:56;9.80;82.70
14008;DHT22;61651;45.508;12.232;2024-01-11T16:48:58;9.80;82.80
14008;DHT22;61651;45.508;12.232;2024-01-11T16:52:02;9.80;83.50
14008;DHT22;61651;45.508;12.232;2024-01-11T16:55:07;9.70;83.70
14008;DHT22;61651;45.508;12.232;2024-01-11T16:58:09;9.60;83.80
14008;DHT22;61651;45.508;12.232;2024-01-11T17:01:11;9.50;83.80
14008;DHT22;61651;45.508;12.232;2024-01-11T17:04:13;9.40;84.10
14008;DHT22;61651;45.508;12.232;2024-01-11T17:07:16;9.40;84.20
14008;DHT22;61651;45.508;12.232;2024-01-11T17:10:20;9.30;84.50
14008;DHT22;61651;45.508;12.232;2024-01-11T17:13:23;9.30;84.90
14008;DHT22;61651;45.508;12.232;2024-01-11T17:16:26;9.20;84.70
14008;DHT22;61651;45.508;12.232;2024-01-11T17:19:29;9.10;84.90
14008;DHT22;61651;45.508;12.232;2024-01-11T17:22:32;9.10;84.70
14008;DHT22;61651;45.508;12.232;2024-01-11T17:25:37;9.00;84.60
14008;DHT22;61651;45.508;12.232;2024-01-11T17:28:41;8.90;85.00
14008;DHT22;61651;45.508;12.232;2024-01-11T17:31:44;8.80;85.30
14008;DHT22;61651;45.508;12.232;2024-01-11T17:34:46;8.70;85.70
14008;DHT22;61651;45.508;12.232;2024-01-11T17:37:53;8.70;86.00
14008;DHT22;61651;45.508;12.232;2024-01-11T17:40:58;8.70;86.00
14008;DHT22;61651;45.508;12.232;2024-01-11T17:44:01;8.60;86.20
14008;DHT22;61651;45.508;12.232;2024-01-11T17:47:05;8.50;86.10
14008;DHT22;61651;45.508;12.232;2024-01-11T17:50:08;8.40;86.90
14008;DHT22;61651;45.508;12.232;2024-01-11T17:53:14;8.40;87.00
14008;DHT22;61651;45.508;12.232;2024-01-11T17:56:18;8.30;87.10
14008;DHT22;61651;45.508;12.232;2024-01-11T17:59:22;8.20;88.40
14008;DHT22;61651;45.508;12.232;2024-01-11T18:02:25;8.10;88.10
14008;DHT22;61651;45.508;12.232;2024-01-11T18:05:27;8.00;88.60
14008;DHT22;61651;45.508;12.232;2024-01-11T18:08:29;8.00;88.30
14008;DHT22;61651;45.508;12.232;2024-01-11T18:11:35;8.00;88.80
14008;DHT22;61651;45.508;12.232;2024-01-11T18:14:38;8.00;88.70
14008;DHT22;61651;45.508;12.232;2024-01-11T18:17:41;8.00;89.60
14008;DHT22;61651;45.508;12.232;2024-01-11T18:20:43;8.00;89.80
14008;DHT22;61651;45.508;12.232;2024-01-11T18:23:46;8.00;90.30
14008;DHT22;61651;45.508;12.232;2024-01-11T18:26:51;7.90;89.60
14008;DHT22;61651;45.508;12.232;2024-01-11T18:29:53;7.80;89.40
14008;DHT22;61651;45.508;12.232;2024-01-11T18:32:55;7.80;89.60
14008;DHT22;61651;45.508;12.232;2024-01-11T18:35:57;7.80;90.10
14008;DHT22;61651;45.508;12.232;2024-01-11T18:38:59;7.80;90.20
14008;DHT22;61651;45.508;12.232;2024-01-11T18:42:03;7.80;90.20
14008;DHT22;61651;45.508;12.232;2024-01-11T18:45:07;7.70;90.20
14008;DHT22;61651;45.508;12.232;2024-01-11T18:48:09;7.70;90.20
14008;DHT22;61651;45.508;12.232;2024-01-11T18:51:12;7.60;90.10
14008;DHT22;61651;45.508;12.232;2024-01-11T18:54:14;7.60;90.20
14008;DHT22;61651;45.508;12.232;2024-01-11T18:57:18;7.50;90.30
14008;DHT22;61651;45.508;12.232;2024-01-11T19:00:20;7.30;90.70
14008;DHT22;61651;45.508;12.232;2024-01-11T19:03:22;7.20;91.20
14008;DHT22;61651;45.508;12.232;2024-01-11T19:06:24;6.80;91.70
14008;DHT22;61651;45.508;12.232;2024-01-11T19:09:27;6.80;91.50